SMRA10 UAOL 191500
AAXX 19151
11012 27670 32506 10039 21008 39658 40131 53002 7//4/ 83500 333 55300 69927 90730 91115=
11022 27/// /2602 10025 20004 39716 40107 51021 7//4/ 333 55300 60017 90730 91114=
11035 32582 13105 10046 20000 39847 40101 52018 81830 333 55300 81823 90730 91117=
11101 27/// /1502 10047 20008 39618 40145 56012 7//4/ 333 55300 69907=
11121 35/// /1002 10030 21001 39436 40138 58002 333 55300=
11126 25/// /3308 11094 21111 37647 48426 55005 333 55300 69907 90730 91114=
11130 27/// /0000 10013 20008 39551 40149 52003 7218/ 333 55300 60017=
11146 41/08 73207 11152 21174 36825 47922 58001 74174 876// 333 55300 877// 90730 91125=
11155 21/56 52911 11060 21089 38278 48413 52004 73883 85800 333 55300 69927 818// 90730 91125=
11171 27/// /3207 11007 21039 39098 40127 52008 7//4/ 333 55300 69907 90730 91119=
11190 32670 53103 10064 21009 39880 40101 53018 855// 333 55300 85638 90730 91117=
11204 27/// /1001 11025 21031 39324 40136 52002 7//4/ 333 55300 69917=
11212 41/81 33212 11081 21091 37731 48415 51001 73787 83800 333 816// 83625 444 16129 26096=
11244 35/// /0000 10034 20018 39777 40108 53008 333 55300=
11343 45/// /3207 11152 21174 36825 47922 58001 333 55300 90730 91125=
11389 27580 22207 10035 21008 39791 40120 51012 7//4/ 825// 333 55300 69917 82630 90730 91116=
11406 21570 72604 10014 21015 39513 40106 53011 72688 86871 333 69915 81823 85650 91009 555 381// 50030 60030 70033 80039 90054=
11423 21/02 92707 11012 21013 39216 42718 53008 77374 333 69975 89/01 91112 555 300// 50013 60014 70018 80031=
11457 21256 72604 11035 21040 38796 48396 53009 78583 874// 333 69935 87806 91010 91113 92981 93618 555 396// 50005 60006 70008 80020=
11464 41/65 53004 11026 21033 39092 42704 53005 77074 84872 333 818// 84620 93602 9512/ 444 18//0 26075 555 395//=
11487 21565 72607 10007 21005 39478 40110 52014 78582 873// 333 69905 82920 85820 91013 91116 555 391// 50013 60015 70018 80037 90052=
11518 21460 72505 10016 21003 39649 40094 53004 78382 8687/ 333 69915 85814 87358 555 387//=
11520 21581 72504 10034 21008 39723 40093 53002 70276 8657/ 333 60005 86626 555 374// 50023 60025 70026 80039 90055=
11546 27581 /2605 10030 21019 39625 40114 53009 76100 333 69905 81/23 83/35 85/41 87/50 91111 555 370// 50041 60038 70042 80055 90064=
11567 21580 82505 10032 21009 39746 40094 52003 70287 888// 333 60005 83825 88650 555 375// 50024=
11603 22478 62002 10005 21034 39599 40089 53007 83871 333 60005 81818 83634 85358 555 375// 50018 60020 70023 80035 90046=
11624 21465 81102 10013 20005 39803 40098 52008 70262 885// 333 60005 85616 88624 555 394// 50027=
11636 21466 72702 10000 21009 39416 42716 51009 78582 872// 333 69905 87816 91111 555 394// 50006 60009 70014 80030 90040=
11652 21460 82601 10006 20001 39819 40104 52012 77176 888// 333 69935 82712 84823 88627 555 397// 50029=
11659 21461 72404 10010 21012 39454 40102 52007 76876 87500 333 69905 83712 84623 555 385// 50008 60011 70006 80025 90048=
11669 22670 72302 11023 21028 39197 42698 52010 875// 333 60005 87637 555 396// 51001 60007 70006 80020 90036=
11679 21450 82405 10008 21008 39606 40100 52016 78582 882// 333 69905 88815 555 389// 50013 60015 70021 80029 90054=
11692 21570 32804 10001 21021 39526 40104 50007 70171 83501 333 60005 81620 83634 555 385// 50005=
11723 21570 42804 10028 21014 39801 40102 52011 70171 81460 333 60005 81626 83358 555 374// 50006 60009 70017 80028 90047=
11766 22481 72704 11029 21035 39193 42704 51015 8357/ 333 60005 81616 83628 85465 93556 555 395// 51001 60002 70005 80020=
11774 21482 61504 10006 21006 39827 40105 52013 70162 83531 333 60005 81614 83650 555 392//=
11782 22772 52205 10017 21016 39774 40093 52016 82542 333 60005 82650 83070 555 379// 50002 60006=
11787 21/03 92907 11059 21063 38550 48373 52014 74987 333 69905 89/01 91112 93566 9513/ 555 398// 50006 60004 70010 80016=
11801 41165 60000 10019 20004 39862 40121 52024 70366 86630 333 81703 83705 86710 555 10109 390//=
11812 46/15 /3110 11010 21010 39397 42701 53013 72473=
11813 46/// /3103 10019 21003 39753 40106 52021=
11816 41482 43205 10033 21002 39943 40108 52021 70281 83842 333 81817 83622=
11819 46/// /3201 10017 20005 39892 40112 52015=
11826 42470 42901 10015 20008 39903 40106 52014 82601 333 82714 84070=
11841 41470 52603 11004 21021 39717 40101 51012 70272 84530 333 82710 84648=
11855 42482 63503 10020 20001 39933 40101 53015 86500 333 83710 85630=
11856 46/// /9901 10010 20001 39775 40098 52009=
11858 41564 73004 10035 20010 39950 40103 53009 72162 87500 333 83726 85633=
11867 41350 43501 10008 21006 39779 40101 52012 72211 84500 333 83708 84630=
11880 41668 80000 10022 20010 39923 40097 52007 72162 885// 333 88640=
11903 41770 31002 11007 21017 39705 40094 50006 70171 82501 333 82650=
11916 41/00 93118 11106 21119 37831 48344 52004 74943 333 89/00 91023 91123 92983 93598=
11918 42585 79902 11009 21049 39261 42703 51013 87460 333 87625=
11927 42682 79902 10025 21008 39829 40094 50011 87500 333 82643 87650=
11930 41/01 92909 11155 21166 37196 47848 58001 74574 333 89/00 91018 93556=
11933 41/72 39901 11058 21067 38545 48366 51008 70181 83841 333 818// 444 18//6 16119=
11934 42683 22606 11013 21053 39245 42691 52010 81540 333 81640=
11938 41467 59902 11035 21058 39009 42695 52010 70272 84641 333 81715 84626=
11952 46/// /3103 11016 21063 39235 42690 52009=
11955 42775 63102 10022 21023 39707 40082 52014 86500 333 86656 555 10067 372//=
11958 46/// ///// 11039 21042 38633 48370 52013=
11968 42770 69902 10032 21021 39799 40082 52012 85530 333 85656 83360=
11976 42570 70000 10035 21022 39818 40083 52019 875// 333 87630=
11978 42770 70101 10018 21004 39949 40081 52013 85530 333 85650 83360=
11993 42780 79901 10039 21003 39866 40084 52019 87500 333 87656=
12105 41256 82102 10010 20003 30014 40057 52014 71082 885// 333 85705 91203=
12115 42482 53004 10029 20000 30034 40048 53016 84230 333 91206=
12120 41481 62802 10009 20000 30042 40046 52018 70282 863// 333 91205=
12125 46/// /2602 10011 21001 39996 40045 52020 333 91205 91303=
12135 41470 62803 10013 20001 30037 40041 52022 70382 86500 333 86611 91206=
12160 41456 72702 11002 21010 39810 40040 53022 78522 86301 333 91203=
12185 41358 83104 11017 21030 39890 40028 52032 72272 886// 333 91204=
12195 41324 83204 11027 21038 39776 40008 52031 77177 8572/ 333 91204=
12200 41362 62402 10014 20004 30052 40060 52010 72075 86600 333 91202=
12205 41462 82502 10017 20004 30055 40064 52012 76022 885// 333 91204=
12210 47/// /2102 10009 20003 39995 40057 52012 700//=
12215 47/// /2702 10004 20007 39885 40058 52016 7////=
12230 41459 82801 10010 21003 39974 40066 52017 71022 875// 333 91203=
12235 41768 72704 10004 21009 39843 40057 52020 72622 875// 333 91204=
12250 41357 82502 10011 20001 39971 40061 52025 71022 886// 333 88708 91203=
12270 41436 72804 10005 21005 39858 40042 52027 78522 873// 333 87910 91207=
12272 41465 62903 11007 21024 39865 40036 52027 70132 83506 333 91206=
12280 41458 83005 11016 21030 39866 40027 52034 77077 885// 333 91111 91206=
12285 47/// /9903 11006 21026 39918 40037 52039 710//=
12295 41231 82904 11015 21028 39817 40006 53044 77177 8672/ 333 86705 91110 91205=
12300 41458 62502 10020 20013 39978 40068 52011 71082 86530 333 83610 91203=
12310 41468 62403 10023 20011 30006 40073 52009 72582 85942 333 91205=
12330 42762 82303 10015 21003 39963 40073 52016 875// 333 91206=
12345 47/62 /2704 10005 21016 39921 40068 52019 767// 333 91205 91304=
12360 47/60 /2805 10010 21003 39920 40055 51025 785// 333 91110 91205 91305=
12375 42460 72706 10012 21007 39920 40052 52035 875// 333 84611 91115 91209=
12385 41562 72906 11001 21022 39839 40032 51040 72232 875// 333 91112 91207=
12399 41323 82806 11009 21022 39844 40015 52043 77177 8672/ 333 91111 91207=
12400 42475 72402 10015 20000 39839 40078 53010 878// 333 91203=
12415 41570 73203 10022 21004 39932 40087 52014 78022 879// 333 91205=
12418 45573 /1902 10022 21002 39966 40081 52014 333 91204 91303=
12424 41680 72502 10020 20001 39936 40087 52015 70182 875// 333 91205=
12435 42662 72404 10009 21001 39905 40079 52021 875// 333 91207=
12455 42766 52803 10007 21020 39835 40083 52016 85000 333 91204=
12465 42465 82704 10008 21008 39847 40072 53021 875// 333 91207=
12469 42568 72606 10009 21017 39839 40074 52020 875// 333 91112 91208=
12488 41470 82804 10016 21018 39899 40056 52036 72272 888// 333 91113 91206=
12495 41460 82907 10003 21018 39756 40052 52035 78783 889// 333 91115 91210=
12497 41325 82908 11009 21020 39807 40030 53038 77183 8772/ 333 91013 91114 91209=
12500 41579 83101 10018 21023 39667 40089 52012 70282 875// 333 91205=
12510 41/01 72811 11084 21089 38227 48363 52013 74883 875// 333 91117 91214 444 76//5=
12520 42683 62305 10014 21026 39655 40094 53016 84932 333 84946 91207=
12530 41670 72201 10020 21001 39888 40091 52015 72522 879// 333 91203=
12540 41656 61501 10012 20002 39839 40095 51015 71082 85530 333 91202=
12550 45/59 /2302 10004 21018 39723 40088 52019 333 91107 91203 91302=
12560 41540 72003 10006 21003 39748 40094 52015 78582 879// 333 91203=
12566 42860 32403 10001 21024 39791 40091 53014 83500 333 91207=
12570 42581 72802 10012 21027 39755 40077 52029 875// 333 91112 91207=
12575 45/67 /3001 10019 21032 39826 40084 52019 333 91110 91204 91303=
12580 42680 22705 10015 21034 39809 40077 52024 82500 333 91120 91213=
12585 45781 /2705 10016 21033 39799 40069 52026 333 91111 91207 91306=
12595 47/70 /2710 10004 21018 39779 40054 51032 723// 333 91118 91213 91311=
12600 41560 73001 10007 21017 39607 40098 52017 77122 875// 333 91203=
12625 41670 62602 11011 21069 39072 42702 52011 78522 86200 333 91204=
12650 41080 63105 11109 21129 37845 48370 51010 78533 86200 333 91010 91115 91210=
12660 45/60 /3302 10014 21026 39730 40091 53020 333 91117 91204 91303=
12670 42578 62903 10015 21032 39679 40086 52026 86800 333 91116 91209=
12690 41780 72803 10016 21043 39570 40085 52023 72622 879// 333 91112 91207=
12695 47/// /9903 10017 21046 39736 40080 52031 700//=
12756 46/// /2403 10021 20015 39904 40094 53009 555 10096=
12766 46/// /2501 10031 21026 39701 40080 52005 555 10066=
12772 41681 62001 10057 21024 39883 40082 53011 70122 85542 333 85646 555 10056=
12786 46/// /2102 10042 20004 39949 40078 52010 555 10076=
12805 46/// /3206 10066 21015 39959 40104 52014 555 10056 55131=
12812 41584 71302 10047 20026 39862 40110 53011 71422 82548 333 82630 555 10086=
12815 46/// /3307 10045 20008 39953 40103 52012 555 10077 55141=
12822 46/// /3205 10059 20016 3//// 4//// 5//// 555 10074 55134=
12830 46/// /3002 10047 20012 39767 40111 53013 555 10078=
12836 46/// /2202 10053 20030 39943 40096 52005 555 10085=
12843 41565 72102 10041 20023 39928 40100 52006 70122 8217/ 333 82820 555 10088=
12846 46/// /1702 10045 20032 39976 40107 53010 555 10091=
12847 46/// /3401 10043 20027 39961 40098 52006 555 10089 6993/=
12851 41/01 92901 11024 21037 38896 42706 53005 77087 333 89/01 555 10091=
12866 46/// /2304 10033 20013 39980 40092 53008 555 10087=
12870 41580 83202 10036 21022 39813 40091 53007 70322 888// 333 81823 88640 555 10066=
12882 41665 71904 10044 20024 39960 40093 53003 70362 875// 333 87640 555 10087=
12892 46/// /2305 10043 20010 39911 40086 52009 555 10079 55101=
12910 46/// /0000 10041 20015 39728 40110 53007 555 10083=
12915 46/// /0703 10044 20005 39812 40107 53009 555 10076=
12922 41475 70701 10045 20027 39962 40111 53013 70162 8287/ 333 81810 82630 555 10088=
12925 46/// /2801 10048 20035 39936 40109 53014 555 10091=
12935 41582 72202 10052 20029 39973 40107 53008 70222 8487/ 333 81820 84630 555 10085=
12942 44465 73405 10056 20011 39868 40114 52023 76066 875// 333 87613 90710 91111=
12950 41460 82401 10046 20028 39988 40109 52016 76062 8557/ 333 82710 83620 555 10088=
12960 46/// /3002 10047 20041 39970 40108 52016 555 10096 6996/=
12970 41575 72702 10048 20036 39965 40105 53013 70262 8487/ 333 81828 83633 555 10092 /7474=
12982 41265 81802 10056 20052 30002 40104 53007 72562 8582/ 333 82805 83620 88556=
12992 41135 82205 10047 20040 39992 40101 53003 76062 8118/ 333 81802 555 10095 55074 6991/=
13067 41456 82103 10053 20047 39975 40105 50006 72162 887//=
13160 41540 83303 10050 20043 30001 40111 52018 76162 8802/=
13168 41660 80204 10034 20020 30000 40108 53006 76066 855//=
13173 41660 80702 10042 20017 39997 40098 55001 76062 885//=
13174 41658 80000 10043 20034 30009 40111 52010 76262 885//=
13180 42670 71403 10060 20054 39990 40101 57004 87500=
13183 42670 71503 10097 21027 39996 40099 57007 87500 333 87640=
13262 42670 82303 10126 20004 39945 40091 56002 885//=
13266 42670 70702 10056 20032 39990 40091 57017 87500=
13269 42670 61802 10128 20012 39883 40093 54000 86500=
13272 31758 70201 10082 20030 39974 40093 58005 71022 83530 333 83650 87358=
13274 42680 51701 10114 20030 39930 40088 50005 82530=
13278 42970 31802 10128 20015 39885 40104 57008 83030=
13279 42984 71401 10108 20010 39951 40096 57008 82036=
13285 42670 61101 10058 21012 30004 40107 57005 86500=
13289 41888 52405 10050 21031 38906 48419 58003 70000 84031=
13295 42965 50000 10064 20006 30053 40108 58001 85050=
13363 42670 71805 10075 20018 39204 48438 55005 84540 333 91111=
13367 42570 62903 10050 21012 38926 48427 53002 81532=
13369 42684 62702 10052 21006 38920 48409 58002 83505=
13370 41980 42802 10113 20009 39732 40101 56009 70221 82032=
13376 42984 51803 10120 20012 39841 40098 58007 83042=
13378 42480 42505 11008 21009 38205 48431 53002 84500=
13383 42975 11704 10124 20018 39904 40104 57007 80002=
13384 42670 51802 10114 21025 39960 40109 56004 85500=
13388 42680 21302 10115 20013 39881 40125 55003 82500=
13389 42680 41202 10107 21040 39847 40125 55000 84800=
13397 42670 21701 10065 21033 39593 40132 55004 81501=
13457 31460 80000 10094 20087 30133 40139 57012 72162 8582/ 333 82817 85623 88457=
13459 41450 80000 10014 20001 39402 40182 56004 76166 8572/ 333 85794 88498=
13461 41562 8//// 10115 20077 30139 40146 57008 76022 8572/ 333 84720 88460 92322 92427=
13462 41458 80000 10056 20049 30120 40162 57008 76062 8552/ 333 82710 85640 88457=
13489 41956 31901 10063 21001 39623 40143 55010 71000 80001=
13493 42998 40202 10060 21033 39324 40138 56004 80006 333 84299=
13571 42698 50000 10064 21033 39595 40133 51002 84540 333 84696=
13575 42698 63601 10036 21036 3//// 4//// 53005 84502 333 84696 82098=
13576 42598 72704 10034 21057 3//// 4//// 5//// 87500 333 87696=
13577 42598 73603 10014 21019 38629 48456 56002 87500 333 87595=
13578 42598 62502 10064 20004 39261 48459 57002 84501 333 84695 82199=
13580 42698 41602 10081 21015 3//// 4//// 5//// 82532 333 82696 81398 81099=
13581 42698 42704 10074 21022 39160 48432 56003 81542 333 81696=
13583 42698 30000 10100 21086 39443 40130 58004 81502 333 81696=
13585 42698 52302 10088 21006 39342 40127 56003 81542 333 81696 82398 82099=
13586 32984 52001 10057 21029 39858 40151 55007 80005=
13588 42696 62502 10064 21053 39777 40141 57010 82832 333 81896 81596 82398 82299 90257=
13590 42998 30000 10046 21129 39144 48446 56008 80005 333 83299=
13591 42698 63202 10082 21053 39743 40134 57010 81535 333 81696=
13592 42998 50000 10072 21044 39994 40149 56009 80001 333 85099=
13594 42998 12001 10094 21022 39531 40142 58002 80001 333 81099=
13595 42998 30000 10082 21053 3//// 4//// 5//// 80001 333 83099=
13597 42998 20000 10134 21122 30064 40135 57013 80001 333 82099=
13598 42998 30000 10072 21071 39462 48438 51003 80001 333 83099=
13600 41558 83206 10056 20041 30120 40174 57010 75066 885// 333 88626=
13601 41665 80000 10126 21006 30019 40140 57009 70252 885// 333 88640=
13610 42765 61810 10094 21035 39725 40148 57022 86500 333 86650=
13611 42660 72206 10144 20122 30056 40146 57024 87500 333 87640=
13615 45781 /1102 10115 20011 30102 40148 58009 8//// 333 87/50 88/58=
13619 42660 70000 10044 20014 39394 42782 54004 87500 333 87640=
13622 42670 50402 10150 20038 30135 40143 57012 85500 333 85643=
13623 41670 83204 10110 20073 30156 40163 57008 76052 885// 333 88640=
13624 42970 83204 10128 20018 30118 40157 54003 8801/ 333 88460=
13625 42770 70000 10078 21028 39952 40186 57019 85508 333 85650=
13632 42662 80000 10095 20028 30008 40173 55013 885// 333 88640=
13633 42963 71804 10144 20094 30136 40173 57016 87020 333 87460=
14006 47/// ///// 48/// 700//=
14007 47/20 /3200 11003 21018 39094 48402 5/003 700// 333 553// 20144 58015 90705 91101=
14008 41/70 63014 11093 21165 37374 47916 55002 70324 86840 333 553// 20000 30177 58006 90705 91122 444 66//8=
14009 46/// ///// 48///=
14010 47/84 /2802 10049 21012 39491 40098 5/010 700// 333 553// 20103 59006 90705 91104=
14012 47/// ///// 48/// 761//=
14014 41370 81205 10033 20024 39645 40109 53018 761// 885// 333 553// 20060 59005 81706 83650 89656 90705 91108=
14015 41259 81202 10040 20022 39748 40110 52020 7636/ 885// 333 553// 20043 30043 59002 81703 82706 88633 90705 91105=
14021 47967 81401 10015 20005 48/// 700// 333 88/58 90705 91104=
14023 46/// /3602 10034 20022 39820 40118 5/012 333 553// 20043 58023 90705 91103=
14024 47/05 90106 11014 21017 39000 48398 5/013 772// 333 58007 89/02 90705 91111=
14026 42670 72502 10047 20002 39790 40112 52014 87500 333 553// 20031 30027 58039 87646 90705 91105=
14031 47770 80202 10036 20016 39878 40107 5/008 700// 333 553// 20074 30061 58030 88/50 90705 91102=
14105 42680 73503 10095 20037 30086 40090 53008 86570 333 553// 20171 30167 59043 83640 85650 90705 91104=
14106 47658 80601 10075 20064 30024 40092 5/006 700// 333 553// 20149 30150 59038 81/44 88/50 90705 91102=
14112 47222 80503 10037 20022 48/// 763// 333 88/06 90705 91111=
14118 47/// ///// 48/// 775//=
14120 47/39 /3505 10042 20021 39929 40123 5/045 783// 333 553// 20017 58012 90705 91110=
14121 47340 80503 10028 20019 39863 40126 5/031 763// 333 553// 20035 30032 58017 88/08 90705 91106=
14122 47460 /1303 10037 20022 39929 40128 5/036 761// 333 553// 20038 30036 58029 88/13 90705 91104=
14240 41650 80602 10046 20026 39962 40119 52032 76566 8802/=
14241 41456 80306 10044 20023 39991 40123 52039 76366 8672/=
14284 41250 83511 10043 20027 30005 40115 52026 76262 8672/ 333 84705 86633 88458=
14307 42680 72002 10125 20087 30009 40085 53001 87500 333 87642=
14317 42470 81405 10110 20082 39986 40087 52002 76062 8782/ 333 82817 87630=
14431 42780 81506 10115 20081 30006 40098 56007 8657/ 333 86650=
14444 42580 81005 10122 20082 30082 40108 58009 8657/ 333 86632=
14445 42681 81210 10116 20082 39950 40103 57009 8687/ 333 82896 84696 81499 81399 92312=
14474 41565 81007 10088 20080 39945 40136 57008 72162 8687/ 333 82823 86640 95011 958/1=
14542 42675 72002 10122 20020 39899 40085 54000 86570 333 86460 87458 95900=
14544 41670 72001 10078 20031 39454 40115 55003 70262 87500 333 87643=
14549 46/// /0000 1//// 2//// 3//// 4//// 5////=
14557 42970 70202 10068 20019 39742 40109 57007 87030 333 87360=
14648 41665 80601 10068 20062 30010 40131 56005 76062 8357/ 333 83643 88459=
14652 41000 82024 11040 21045 37842 48408 51027 77174 8802/ 333 88500=
14654 42770 82201 10086 20016 39364 40100 56007 83570 333 83650 83357 85458=
14657 46/// /1101 10117 20092 30108 40120 57007=
15000 23/// /2902 10059 21023 39761 40077 52022 333 55306 60007 91003 91104=
15004 22597 70000 10030 20002 39761 40101 53011 87500 333 60007 91000 91102=
15007 23/// /2803 10043 21047 39605 40078 53022 333 6///7 91005 91109=
15010 21598 82506 10034 20017 39941 40094 52013 76162 8377/ 333 69917=
15014 22697 83402 10026 20007 39868 40097 52010 8657/ 333 60007 91003 91104=
15015 21596 72301 10023 21013 39486 42707 51007 71022 85370 333 60007=
15020 22997 32503 10056 21029 39880 40078 53025 83070 333 60007 91005 91105=
15023 22998 22505 10040 21049 39636 40064 53022 82040 333 60007 91007 91107=
15025 23/// /1402 10032 21024 39940 40078 53020 333 6///7 91002 91104=
15033 21497 70904 11074 21080 38073 48383 53009 73633 87300 333 55300 0//// 20101 3//// 60007 91013 91118=
15042 22597 82203 10046 20016 39940 40095 53004 8357/ 333 55300 0//// 20183 3//// 60007 91005 91107=
15044 26/// /2404 10048 21001 39900 40098 52011 333 55300 0//// 20161 3//// 60007 91108=
15047 21696 82102 10019 20010 39657 40104 51007 72582 883// 333 55300 0//// 20107 3//// 69927 91002 91102=
15056 22997 21902 10048 21043 39728 40082 52024 82040 333 55300 0//// 20208 3//// 60007 91004 91106=
15063 22597 72202 10043 20010 39735 40097 50007 84370 333 60007 91004 91106=
15069 22597 82304 11011 21028 39007 42711 51011 8457/ 333 60007 91007 91109=
15073 23/// /1901 10037 21041 39618 40091 53023 333 6///7 91002 91103=
15080 21596 81805 10045 20029 39933 40102 53005 71022 8457/ 333 60007 91007 91109=
15083 21596 83601 10009 20001 39817 40106 51012 77172 8802/ 333 55300 0//// 20098 3//// 69927 91001 91102=
15085 22597 81801 10025 20000 39657 40106 51009 8337/ 333 60007 91003 91105=
15088 21/90 92612 11087 21099 37834 48387 53010 77174 333 55300 0//// 20083 3//// 69987 91018 91124 92722 92935 96049=
15090 22997 30702 11007 21025 39999 40094 53020 83070 333 55302 10108 20234 30105 60007 91003 91104=
15094 22997 32501 10037 21028 39616 40099 53019 83040 333 55300 0//// 20115 3//// 60007 91004 91105=
15095 21998 82104 10033 20004 39695 40104 50008 72162 8807/ 333 55300 0//// 20116 3//// 69927 91007 91108=
15099 22697 81600 10034 21003 39423 42711 51005 8347/ 333 553// 60007 91001 91105=
15107 22597 82301 11006 21017 39288 42720 53005 883// 333 60007 91003 91109 95070=
15108 21/91 92815 11074 21084 37947 48371 53017 74543 333 55300 0//// 20170 3//// 60007 91019 91122 92727 92941=
15109 22598 32804 10056 21039 39644 40080 53022 82440 333 60007 91008 91112=
15111 23/// ///// 10058 21028 39815 40079 53019 333 6///7 91003 91107=
15113 22597 71501 10022 21027 39925 40091 53019 84541 333 55304 0//// 20357 3//// 60007 91002 91105=
15117 22598 81602 10047 20019 39903 40106 55001 8357/ 333 55300 0//// 20139 3//// 60007 91004 91107=
15118 21494 81601 11017 21017 38815 48398 52003 72272 8657/ 333 60027 91004 91105=
15119 21/90 92710 11057 21064 38021 48380 52010 77174 333 69977 91016 92722 92963 96049=
15120 22697 70902 10024 20006 39603 40105 51010 84570 333 55300 10003 20129 30131 60007 91004 91105=
15123 23/// /1300 10021 20003 39628 40118 51010 333 55300 0//// 20175 3//// 6///7 91002 91104=
15124 26/// /1501 10019 21007 39571 40122 51012 333 60007 91001 91103=
15127 22598 72103 10008 21027 39214 42720 53005 84570 333 55301 0//// 20207 3//// 60007 91005 91107 95000=
15136 21597 82204 10048 20048 39982 40103 53002 76162 8802/ 333 55300 69947 91005 91105=
15138 21598 82102 10020 20020 39398 42716 53002 70272 8457/ 333 55300 0//// 20127 3//// 69927 91005 91108=
15143 26/// /0501 10031 20005 39588 40109 52009 333 55300 0//// 20132 3//// 60007 91102=
15145 21998 81203 10033 20006 39735 40117 52012 76162 8802/ 333 69917 91004 91104=
15148 21/92 92303 11037 21037 38609 48385 53005 74544 333 55300 0//// 20112 3//// 60007 91005 91107=
15150 22997 43601 10057 21013 39874 40088 53017 83071 333 60007 91003 91103=
15154 22997 51201 10036 21008 39948 40093 53022 85050 333 60007 91002 91103=
15160 22597 81704 10030 20017 39766 40109 52004 8457/ 333 60007 91005 91106=
15162 21597 80000 10009 20005 39379 42723 53006 7268/ 883// 333 69947 91000 91101=
15163 21469 72504 11014 21038 38542 48401 52007 70282 84870 333 55302 0//// 20300 3//// 69917 91009 91111=
15165 21698 82007 10028 21005 39473 42717 51012 71522 8757/ 333 60007 91008 91110=
15168 26/// /3601 10005 21004 39484 42724 50010 333 69927 91001 91102=
15170 22598 62202 10015 21018 39314 42718 50007 84301 333 60007 91006 91107=
15179 26/// /2007 10026 20014 39535 40112 53005 333 55300 0//// 20044 3//// 6///7=
15182 23/// /0703 10031 20029 39894 40114 52007 333 6///7 91005 91105=
15184 21/92 92106 11023 21023 38723 48402 53007 74944 333 60007 91008 91110 92722=
15189 26/// /0902 10016 21002 39719 40111 52009 333 60007 91003 91103=
15194 22998 10802 10053 21016 39795 40092 53021 81040 333 60007 91003 91109=
15197 22997 52502 10048 21022 39887 40100 53019 85070 333 55300 0//// 20094 3//// 60007 91003 91106=
15199 21597 82103 10046 20034 39987 40093 53006 76162 885// 333 55300 69967 91004 91106=
15200 21597 82001 10050 20044 39963 40109 53004 76166 8802/ 333 69987 91002 91102=
15204 26/// /1301 10040 20032 39927 40121 53004 333 55300 0//// 20098 3//// 6///7=
15206 26/// /1901 10014 20010 39787 40127 52007 333 55300 0//// 20088 3//// 6///7=
15208 22597 72103 10047 20013 39807 40110 52010 84370 333 55300 0//// 20299 3//// 60007 91005 91106=
15209 26/// /2206 10042 20005 39694 40107 51007 333 55300 0//// 20123 3//// 6///7=
15215 21597 82501 11016 21048 39505 42726 50008 72682 83307 333 55300 0//// 20206 3//// 69907 91001 91104=
15217 22597 61903 10003 21038 39434 42728 53006 86300 333 60007 91003 91107=
15219 23/// /1503 10024 21019 39963 40090 52024 333 55306 60007 91006 91107=
15230 22597 82201 10025 20002 39824 40122 53007 8557/ 333 55300 00024 20069 30067 60007 91001 91102=
15231 22598 72605 10031 20008 39781 40111 53008 84570 333 60007 91006 91107=
15235 23/// /0702 10012 20012 39601 40129 52011 333 55300 60007 91002 91103=
15238 22997 41900 11020 21038 39493 42730 53009 82041 333 60007 91001 91101=
15245 26/// /1301 10042 20040 30009 40109 53004 333 55300 0//// 20049 3//// 6///7=
15247 21597 81900 10051 20038 39999 40106 53005 76162 8802/ 333 55300 10053 20064 30062 60017 91001 91105=
15254 22497 72601 11008 21030 38450 48407 51012 87300 333 60007 91002 91105=
15260 22599 71601 10023 21006 39575 40117 52009 87800 333 60007 91003 91104 95000=
15261 22597 41401 11009 21034 39290 42743 53005 84200 333 55304 0//// 20360 3//// 60007 91001 91101 95000=
15262 21/93 92910 11059 21069 38102 48401 53010 74542 333 55300 0//// 20136 3//// 60007 91014 91115=
15264 22597 60301 10041 21012 30034 40106 53019 82871 333 60007 91002 91102=
15265 22597 51301 10034 21013 30025 40101 53017 81570 333 55306 0//// 20446 3//// 60007 91002 91103=
15270 22998 81603 10065 20038 39962 40115 53003 8807/ 333 55300 60007 91004 91104=
15277 26/// /1909 10020 21012 39491 42726 52019 333 55300 60007 91009 91109=
15279 21997 7//// 11048 21080 37842 48408 52018 73633 87070 333 60007 92913=
15280 21093 72506 11087 21096 37394 47929 52012 74143 87500 333 553// 0//// 2//// 3//// 60007 91010 91112 92913=
15284 21/92 93109 11047 21048 38254 48401 53019 74544 333 60007 91015 91115=
15285 22998 03005 10031 21050 39097 42716 51019 333 55304 0//// 20381 3//// 60007 91010 91112=
15289 22597 80902 10067 20015 30004 40107 55005 8657/ 333 55300 0//// 20113 3//// 60007 91003 91103=
15292 21597 81402 10052 20030 39820 40116 55003 76162 885// 333 69947 91005 91105 95090=
15296 21515 61400 10026 20005 39388 42728 53004 71022 86500 333 55300 0//// 20111 3//// 60007 91001 91102 95060=
15297 26/// /3203 11003 21044 38565 48/// 53006 333 55300 0//// 20043 3//// 60007 91105=
15300 22997 61001 11037 21048 39475 42725 53009 86070 333 60007 91002 91104=
15301 22598 30303 11024 21028 38540 48423 53010 82101 333 55307 0//// 20509 3//// 60007 91004 91105 95000=
15302 22698 32600 10005 21025 38848 48407 52014 83500 333 55300 0//// 20118 3//// 60007 91001 91102 95000=
15307 22968 42704 10085 21016 39905 40091 53014 84070 333 55301 0//// 20292 3//// 60007 91008 91110=
15310 22998 61601 10052 20009 30014 40101 53015 86070 333 553// 00363 20221 30191 60007 91003 91104=
15314 22998 80901 10057 20020 39767 40108 57002 8807/ 333 60007 91003 91103=
15315 21197 82209 11028 21028 38484 48418 57002 77172 8802/ 333 69937 91012 91112 92717 92913=
15316 26/// /1802 1//// 2//// 38449 48/// 57003 333 55300 0//// 20071 3//// 69997=
15317 21196 83310 11060 21064 37714 48414 52002 73833 885// 333 55300 0//// 20141 3//// 60007 91014 911// 92727 92941 95090=
15319 26/// /2200 10020 21022 39423 42/// 53007 333 55300 0//// 20190 3//// 60007 91101=
15320 22598 71901 11009 21040 38351 48408 50004 84570 333 60007 91004 91104 95000 95100=
15324 22970 22002 10052 21033 39297 42724 53009 82040 333 55303 0//// 20275 3//// 60007 91004 91104=
15325 22598 43602 11015 21033 38388 48406 53012 82205 333 60007 95000=
15328 22997 33102 10070 21014 39746 40098 53011 83070 333 55304 0//// 20412 3//// 60007 91004 91107=
15333 22597 61901 10063 20020 30083 40102 53018 82261 333 60007 91003 91105=
15335 22997 40701 10048 21004 30093 40100 51013 82038 333 60007 91001 91103=
15336 25/70 /1201 10040 21015 30096 40101 51016 7000/ 333 55302 0//// 20298 3//// 60007=
15337 22997 62703 10042 21020 39893 40101 51022 86070 333 60007 91004 91106=
15338 22598 71603 10081 21032 39732 40106 55004 83370 333 60007 91005 91106 95000=
15340 22997 70200 10057 21009 39860 40110 55001 87070 333 60007 91001 91101=
15341 25/66 /0302 10032 21021 39795 40104 53005 7000/ 333 55300 0//// 20241 3//// 69937=
15344 22597 72101 10045 21029 39475 42727 53003 87500 333 55302 0//// 20272 3//// 60007 91002 91103=
15345 22998 62702 10045 21024 39453 42726 53007 86070 333 55304 0//// 20376 3//// 60007 91003 91103=
15346 22597 63601 10076 21018 39819 40108 53003 83570 333 60007 91001 91102 95090=
15347 22598 52002 10053 21027 39565 40107 53009 85500 333 55303 0//// 20305 3//// 60007 91003 91103=
15349 23/// /2601 10087 21035 39542 40091 53006 333 55304 0//// 20421 3//// 6///7 91004 91106=
15350 22597 42503 10060 20010 39985 40105 53011 84500 333 60007 91004 91106=
15360 22997 62202 10040 20015 30088 40102 51021 86070 333 60007 91002 91104 92417=
15364 23/// /2201 10031 21013 39812 40129 55006 333 6///7 91001 91102=
15366 22597 41300 10071 20013 39878 40111 53003 84200 333 60007 91001 91102 95000=
15369 22997 62301 10070 21010 39792 40115 53004 86070 333 55303 0//// 20269 3//// 60007 91003 91105=
15373 22998 23102 10075 21017 39717 40099 53007 82040 333 60007 91003 91104=
15375 22999 22402 10096 21019 39740 40097 53007 82040 333 60007 91004 91105=
15377 22997 02802 10059 20006 39880 40098 53010 333 60007 91002 91106=
15387 22997 52503 10040 20009 30125 40129 52034 80006 333 553// 0//// 2//// 3//// 60007=
15388 23/// /1302 10091 21012 30004 40106 56007 333 6///7 91003 91103=
15395 22998 52605 10077 21011 39775 40115 52009 85070 333 60007 91007 91107=
15402 22997 02103 10065 21006 30032 40107 53009 333 55301 0//// 20249 3//// 60007 91005 91108=
15405 22997 22405 10054 20003 30046 40110 53007 80002 333 55305 0//// 20412 3//// 60007 91008 91108=
15406 23/// /2003 10062 20008 30056 40104 53008 333 6///7 91006 91108=
15409 23/// /3104 10034 21018 30052 40102 53014 333 55306 0//// 2//// 3//// 6///7 91006 91108=
15410 22997 23101 10071 20000 30019 40115 55001 82030 333 60007 91001 91101=
15412 26/// /2801 10063 21043 39738 40120 54000 333 553// 0//// 2//// 3//// 60007 91104=
15416 22997 32403 10079 21006 39853 40108 52003 82041 333 60007 91006 91106=
15419 22997 22403 10068 20002 39917 40113 53006 80001 333 60007 91006 91108=
15420 22997 02403 10063 21008 39994 40106 52004 333 55305 0//// 20383 3//// 60007 91006 91107=
15421 22997 02604 10067 21013 30005 40117 52004 333 55305 0//// 20426 3//// 60007 91008 91109=
15422 22997 22303 10067 21007 30010 40112 53003 80001 333 55302 60007 91006 91109=
15425 22997 02306 10050 20012 30041 40105 52005 333 60007 91008 91110=
15428 22997 42302 10046 21005 30101 40105 53016 80002 333 55306 10062 20460 30136 60007 91004 91104 92437=
15434 22997 22904 10084 21036 39905 40115 52005 82040 333 60007 91007 91108=
15444 23/// /2506 10047 20024 30029 40101 52006 333 55310 60007 91008 91109=
15445 23/// /2604 10070 21004 39998 40106 52006 333 55304 6///7 91008 91109=
15450 22997 42602 10076 21019 39879 40114 53003 84040 333 55304 00040 20370 30155 60007 91003 91104=
15455 22997 52502 10064 21005 39982 40114 53003 83042 333 55304 0//// 20420 3//// 60007 91003 91106=
15460 22997 32503 10078 21017 30088 40112 53003 82071 333 60007 91006 91108=
15462 22997 13504 10056 21018 30019 40107 51007 80001 333 60007 91006 91108=
15465 22997 51102 10079 21007 30040 40112 57003 85070 333 55303 0//// 20365 3//// 60007 91003 91103=
15469 22597 52001 10044 21009 39987 40119 52003 83840 333 60007 91004 91104=
15470 22997 52502 10033 21009 39988 40116 53002 85070 333 60007 91005 91105=
15475 22997 02504 10074 21022 30093 40113 52003 333 55303 0//// 20334 3//// 60007 91006 91109=
15479 22997 22604 10064 21025 39914 40109 55001 80001 333 60007 91008 91109=
15480 22997 33203 10067 21023 30083 40100 51007 82031 333 60007 91007 91109 92427=
15482 22597 61003 10078 20023 30035 40111 57002 81370 333 60007 91004 91105=
15489 22997 62903 10058 21020 30021 40116 55001 86070 333 60007 91004 91105=
15490 22597 53002 10095 21024 30079 40118 55001 83542 333 55304 0//// 20428 3//// 60007 91003 91103=
15491 22997 21701 10058 20004 30087 40117 55001 82040 333 60007 91001 91103=
15494 22997 60102 10099 21008 30073 40118 55001 86070 333 60007 91003 91103=
15498 22997 62301 10111 21011 30073 40115 55001 86070 333 60007 91002 91104=
15499 22997 10704 10071 21013 30101 40110 52006 81030 333 55300 60007 92427=
15502 42970 52502 10096 20036 30062 40101 56001 85050 333 10113 21042 555 566//=
15525 42981 21801 10130 21043 39839 40098 54000 80001 333 10145 21010 555 530//=
15549 42970 22501 10085 21019 39699 40112 53005 80001 333 10106 21015 43001 555 548//=
15552 42982 52902 10111 21036 30060 40108 57003 82031 333 10135 20016 555 536// 92014 92418=
15600 41989 32512 11016 21068 38232 48435 58008 70200 80001 333 11012 21068 44015 555 567//=
15614 42970 21602 10076 21053 39427 40128 57002 80001 333 10086 21046 555 540//=
15615 41989 32510 11070 21087 37059 47991 54000 70200 81041 333 11068 21099 444 26254 555 588//=
15640 42970 20000 10082 20002 39825 40137 58001 81041 333 10098 21016 555 557//=
15655 42975 62302 10093 21013 30098 40131 57001 82046 333 10106 20003 555 547// 92022 92428=
15712 42980 22301 10110 21076 39886 40134 56015 81031 333 10124 21030 555 526//=
15730 42970 21805 10096 21016 39739 40133 53004 81031 333 10130 21019 555 546//=
16741 42960 02010 10134 21033 30070 40160 51004 333 91114=
17020 42970 01902 10068 21032 30132 40172 52013 333 91109=
17031 41670 71304 10076 20008 30165 40171 52033 70282 84250 333 84833 87359 91113=
17033 42670 72302 10089 20016 30168 40173 52027 84270 333 84834 87360 92438=
17040 41560 70000 10073 20060 30171 40182 52039 78088 84250 333 84830 87358 91103 92447=
17046 41558 70502 10009 21028 38110 48453 52018 77177 85520 333 85630 87457 91110=
17061 42970 01903 10081 21001 30090 40163 50004 333 91111 92418=
17063 42960 01907 10087 21018 30054 40176 52007 333 91119=
17064 42960 12303 10096 20002 30147 40169 51005 80001 333 81070 91110=
17066 42962 22802 10096 21015 30080 40173 52005 80001 333 82070 91108=
17072 42970 01002 10082 21040 39998 40177 50008 333 91106=
17077 42970 03003 10020 21014 39600 40193 52019 333 91110=
17080 42665 13205 10030 21067 39278 40173 52023 81100 333 81840 91111=
17089 41670 82504 10000 21015 38341 48432 52026 72277 8452/ 333 84635 88460 91107=
17094 42660 70106 10043 21038 38714 48420 52025 85550 333 85638 87358 91115=
17095 41550 81004 11002 21019 38043 48417 52019 77177 8552/ 333 85/27 88457 91115=
17109 42970 02008 10125 20037 30116 40143 50002 333 91118=
17118 42960 00506 10052 21005 39893 40180 51005=
17119 42970 01902 10092 21010 30170 40175 52009 333 91106 92417=
17127 42965 02506 10015 21058 39193 40197 52019 333 91110=
17131 42960 02507 10015 21052 39217 40197 52022 333 91114=
17135 42970 02503 10034 21030 39286 40182 52022 333 91113=
17143 42960 03402 10097 20013 30162 40179 53001 333 91110=
17155 42970 01502 10000 21037 39064 40221 52018 333 91108=
17165 42670 83110 10042 20012 38949 40082 52018 8552/ 333 85640 88460=
17175 42965 01903 10101 20009 30163 40167 53002 333 91111 92417=
17185 42970 02904 10026 21063 39168 40216 52013 333 91108=
17189 42970 03403 10001 21062 39018 48471 52013 333 91115=
17191 42670 42803 10005 21046 39052 40206 52022 84500 333 84640 91114=
17192 42675 71802 10000 21041 39068 40212 52027 85550 333 85635 87360 91107=
17197 41560 81706 10016 21003 39032 40121 52030 70272 8672/ 333 82720 85635 88459=
17208 41570 80000 10001 21008 38089 48398 52005 77177 8542/ 333 85631 88457 91115=
17221 42970 01604 10109 20032 30162 40168 50000 333 91110 92428=
17232 42970 01202 10116 21050 30147 40178 50001 333 91106 92418=
17238 42970 00602 10023 21117 39057 40191 52014 333 91112=
17239 42970 00000 10011 21101 39019 48475 52018 333 91108=
17241 42970 03414 10020 21051 39162 40201 52009=
17242 42970 00402 10001 21080 38863 48476 52019 333 91111=
17246 42670 50405 10000 21045 38999 48478 52029 85500 333 85640 91116=
17256 42660 33518 10086 21034 39472 40090 52045 83100 333 83835 91029 91129=
17257 42970 00905 10019 21040 39197 40213 51010 333 91109=
17261 42970 02903 10063 21023 39099 40090 52044 333 91112=
17262 42570 42705 10072 20019 39341 40104 52038 84200 333 84830 91113=
17265 42675 71301 10063 20035 39297 40085 53034 84570 333 84637 87360 91105=
17271 41230 70215 10045 20039 39115 40072 52032 71022 87500 333 84705 87620 91120=
17287 41663 81004 10014 21002 38546 48400 52020 76876 83250 333 83837 85357 91120=
17291 42960 02302 10121 21077 30167 40181 53002 333 91108=
17296 42970 01402 10106 20002 30141 40145 50000 333 91105 92408=
17297 42970 02907 10110 21052 30135 40169 52005 333 91128 92428=
17302 42970 03403 10146 21063 30081 40138 52012 333 91115 92438=
17310 42970 00204 10130 21043 30119 40126 52023 333 91110 92448=
17355 42670 12004 10099 20016 39988 40108 52041 81100 333 81835 91117=
17371 42860 23220 10111 20000 30013 40122 52035 82050 333 82357 91030 91134=
17380 42970 00801 10148 21051 39945 40129 52011 333 91110 92428=
17501 42960 02412 10142 20017 30113 40132 52035 333 92457=
17505 42960 00107 10129 20007 30025 40138 52032=
17507 42560 23016 10129 20001 39943 40053 57015 82100 333 82825=
17510 42560 10704 10135 21013 30120 40130 52026 81100 333 92437=
17515 42960 02606 10123 21030 39971 40146 52034=
17521 42560 13307 10109 20009 39985 40124 52031 81100 333 81825=
17530 42960 02907 10119 21002 30078 40135 52029=
17535 42960 02913 10123 20000 30081 40117 52030=
17540 42560 13115 10133 20015 30122 40146 52032 81100 333 81830 92437=
17547 42560 13213 10105 21004 39865 40109 52030 81100 333 81830 92437=
17550 42960 03006 10108 21001 39970 40117 52030 333 92447=
17572 42560 12006 10123 21003 30116 40141 52031 81100 333 92437=
19151 78741 42562 60508 10284 20188 30079 40142 52020 84531 333 30/// 56100 59009 84622 2995 1AC070 1CI300=
19154 97180 21457 70603 10246 20241 30072 40091 50008 76162 83272 333 56000 60127 85819 83460=



SMUS10 KWBC 191500
AAXX 19154
16008 41566 63604 11006 21105 38453 48417 58003 70272 86500 333 86625 92812 93197=
16020 42984 21502 10055 21020 39815 40102 57004 82030 333 82359=
16022 42688 33411 11050 21188 37751 48399 53001 81530 333 55310 81640 92835=
16033 42780 32601 10004 21044 38712 48423 53004 83030 333 83356 92882=
16036 42875 30601 10104 20041 39944 40085 52006 83030 333 83358=
16040 41565 50000 10010 20000 39186 42722 51003 70172 85200 333 85832 93199=
16052 41/56 72130 11170 21188 36513 47944 57009 73831 83580 333 55310 84310 444 36386=
16059 32989 02917 10141 21124 39730 40085 52005=
16061 42984 03011 10098 21098 39255 42714 53005 333 55310=
16064 42880 32405 10120 20025 39880 40089 55001 83070 333 55310 83357=
16066 32980 32406 10134 20011 39807 40084 52003 83500 333 83659=
16076 42970 11606 10095 20020 39802 40090 52004 81030 333 81360=
16080 42986 32305 10124 20022 39962 40085 53002 80006 333 83270=
16084 42964 13203 10110 20069 39915 40080 53003 80001 333 55310=
16088 42660 31003 10100 21037 39974 40091 53010 82130 333 82840=
16099 32965 /3303 10099 21001 30069 40090 52007=
16105 32870 29901 10083 20012 30086 40089 52004 82080 333 82357=
16108 32760 69901 10094 20063 30074 40088 52005 86070 333 86350=
16110 42598 70000 10094 20074 30081 40085 53007 85570 333 55300 85630 83357 555 0000/=
16114 42970 19903 10130 20031 39435 42726 53005 80001=
16119 42965 21803 10096 20056 39519 40091 54000 80001=
16120 42975 42804 10134 20085 30087 40091 55002 80001 333 84080 98580 555 0323/=
16124 41/00 92214 10050 20032 38890 48404 51004 74544 333 89/00=
16134 41/03 92414 10000 21021 37738 48416 58000 74944 333 55300 89/00 92712 92845 95090 95190=
16138 42660 23504 10106 20027 30079 40090 53001 82500 333 82640=
16140 42775 33403 10099 20018 30040 40090 54000 83108 333 83850=
16148 42575 30206 10116 20067 30072 40084 53003 81101 333 55310 81825=
16149 42564 43207 10128 20075 30065 40081 53004 81101 333 81825=
16153 42998 30106 10130 20093 39825 40086 58004 80001 333 55310 555 0214/=
16158 41570 62113 10136 20106 30089 40096 57011 70152 86800 333 55300 82820 84635=
16168 41/00 90000 10092 20072 39364 42732 5//// 74544 333 89/00=
16170 32465 69901 10120 20092 30047 40099 57009 85404 333 81710 85635=
16172 42562 82004 10090 20066 39812 40111 56015 8453/ 333 84625 87356=
16179 42575 72208 10100 20067 39410 42716 51010 84205 333 84825=
16197 42565 63604 10100 20081 39619 40086 56010 86110 333 55300 82820 86457=
16204 41/00 91602 10074 20070 39189 42773 56010 7452/ 333 89/00 95099 95117=
16206 42660 63505 10090 20064 30101 40110 57009 82211 333 82640 83456=
16214 41496 82116 10140 20109 30109 40114 56014 71022 8527/ 333 55300 20409 83815 83820 85356 555 0500/=
16216 41458 81808 10104 20082 39750 40116 57011 72165 85208 333 55300 82615 83620=
16219 46/// /3600 1//// 2//// 3//// 4//// 5////=
16224 41456 81813 10112 20096 39803 40119 56012 72052 886// 333 55300 20131 83713 86623=
16230 36/// /0805 10141 20064 30073 40090 52002=
16232 42598 72021 10164 20086 30032 40084 56005 82131 333 55300 82826 84358 555 0215/=
16234 41560 81306 10098 20092 30030 40138 56014 72052 8522/ 333 85830 83456=
16239 31456 81507 10113 20097 39972 40127 57012 76062 885// 333 88620=
16242 42563 72217 10141 20087 30120 40125 57010 87800 333 83825 86640=
16243 41461 83600 10126 20118 30102 40134 57017 75055 888// 333 83818 86640=
16244 41130 81003 10106 20078 39919 40141 56012 71052 8651/ 333 83703 85625=
16252 42470 62506 10090 20059 39187 42750 56012 82531 333 55300 82610 83358=
16253 42465 72107 10142 20122 30126 40138 57018 85830 333 55300 81818 85640=
16258 42470 72017 10068 20031 39110 42723 56011 81520 333 81612 86457=
16263 42266 73416 10056 20006 38872 48441 56006 87500 333 87605=
16270 42966 71903 10144 20067 30051 40116 57005 87020 333 87460=
16280 42597 61808 10126 20110 39904 40125 56013 85570 333 55303 85620 555 0426/=
16289 42565 62108 10131 20091 30056 40139 57014 86800 333 83825 86656=
16294 42598 82607 10124 20100 39952 40145 57014 887// 333 83720 86630 555 0314/=
16310 42497 61206 10130 20109 39935 40156 57014 86200 333 55300 82815 84825 555 0215/=
16312 42960 81615 10112 20100 39712 40128 58003 84048 333 84362=
16320 36/// /1808 10133 20059 30116 40133 57005=
16325 42698 81616 10138 20104 30116 40130 57004 8651/ 333 86640 84459 98070 555 0214/=
16332 42560 71507 10120 20077 30080 40144 57009 81105 333 81820=
16337 42497 82610 10094 20083 39573 40145 57009 882// 333 88610 555 0326/=
16344 41/00 92718 10030 20027 38274 48458 57010 74742 333 55300 89/00 95090 95190=
16360 42997 51702 10118 20102 30005 40139 58015 83031 333 55300 83359 555 0100/=
16362 42560 32711 10134 20083 30142 40158 57007 82101 333 82830=
16400 42998 62218 10126 20110 39867 40156 57013 86030 333 55304 86360 555 0326/=
16405 32960 02113 10149 20079 30126 40150 57010=
16420 42998 30210 10154 20045 30090 40155 57010 80004 333 55310 555 0311/=
16429 42570 61814 10138 20110 30140 40151 56016 85801 333 55305 83820 83630=
16434 42468 62111 10068 20045 38962 48467 56011 84101 333 84813 95015 95100=
16450 42265 62803 10062 20027 38990 48459 56012 84201 333 84605=
16453 42697 72402 10138 20100 30085 40168 57016 84230 333 55300 84640 86359 555 0100/=
16459 42965 62416 10146 20062 30130 40166 56010 80005=
16460 32960 02517 10151 20077 30136 40150 57012=
16470 42465 41914 10132 20111 39918 40153 57021 82201 333 55309 22/// 82615 95010=
16480 42498 62608 10138 20100 30091 40153 57017 84230 333 55302 84815 84358 555 0300/=
16520 42481 82905 10138 20101 30128 40160 55008 8312/ 333 83818 88460=
16522 42497 83114 10122 20111 39910 40154 57014 85230 333 55300 85812 85360 555 0300/=
16531 32570 82512 10150 20073 30123 40136 57008 82537 333 82630 84358 88270=
16539 42598 73411 10144 20136 30054 40168 56013 82871 333 82823 85458 555 0399/=
16546 42562 83211 10150 20132 30110 40138 56012 82202 333 82820=
16550 42898 72705 10144 20066 39950 40128 57015 84072 333 55300 82358 84459 555 0100/=
16560 32575 63216 10150 20090 30145 40149 57014 83511 333 81625 83465 85073=
16564 42897 72404 10162 20103 39994 40134 55005 83036 333 83357 555 0200/=
16597 32570 62207 10147 20078 30063 40172 56014 86501 333 60007 86628 84075 91114 91213=
16606 46/// /0000 10092 21062 30110 40147 54000 333 91104=
16614 46/// /9904 10098 21017 39370 40140 57004 333 91113=
16622 42960 29903 10114 21037 30144 40145 57005 80001 333 91105=
16624 42960 20000 10110 20003 30134 40140 57001 80001 333 91112 555 40000 47635 44250 50000 50066=
16627 42960 30000 10106 20028 30145 40150 51002 80001 333 91115 555 40000 47639 44220 50000 50072=
16632 42960 20000 10102 21065 39411 40150 54000 80001 333 91104 555 40000 47086 44200 50000 50044=
16641 42670 71509 10136 20071 30158 40163 57009 83538 333 83645 83358 87270 91120 555 40000 47647 44190 50000 50104=
16643 41560 70805 10108 20051 30179 40185 57006 70252 87530 333 87630 84358 91107 555 40000 47665 44210 50000 50082 60000 65555 60001 70000 77/// 7D///=
16648 42960 20000 10144 20038 30057 40140 57008 80001 333 91107=
16650 42960 31909 10124 20022 30152 40153 51004 80001 333 91120=
16667 42965 01804 10114 20027 30170 40175 56001 333 91114 555 40000 47657 44200 50000 50076=
16682 42660 52007 10146 20080 30162 40173 57009 83561 333 83635 84356 91114=
16684 42960 11904 10138 20014 30129 40139 52001 80001 333 91113=
16685 42460 62704 10154 20105 40173 56009 84641 333 82714 83618 91110 555 40000 47633 44170 50000 50128=
16706 42960 01805 10122 20032 40167 51002 333 91116 555 40000 47657 44250 50000 50082=
16710 46/// /2512 10094 20032 39409 40178 52004 333 91129=
16715 42960 01907 10122 20003 40158 52002 333 91119=
16716 46/// /9902 10127 21014 30112 40163 54/// 333 91110=
16718 42960 02410 10146 20059 40155 57006 333 91122 555 40000 47622 44220 50000 50104=
16723 42960 01103 10130 20082 30165 40178 53003 333 91110 555 40000 47658 44230 50000 50106=
16726 42560 40000 10140 20063 40180 56004 84800 333 82830 84650 91106=
16732 46/// /1608 10136 20025 30163 40174 52001 333 91115=
16742 42965 00105 10106 20022 40180 51001 333 91113 555 40000 47554 44245 50000 50070=
16746 42560 12719 10138 20087 39995 40178 51004 81100 333 91137 555 40000 47525 44180 50000 50112=
16749 42960 02814 10130 21028 30151 40166 54000 333 91122 555 40000 47649 44245 50000 50068=
16754 42965 03012 10146 20112 30131 40178 57005 333 91118 555 40000 47629 44190 50000 50128=
16757 42960 03010 10136 20040 40177 57002 333 91116=
16760 42560 10405 10116 20066 40189 52003 81100 333 91110 555 40000 47372 44220 50000 50092=
16765 42560 13213 10134 20020 40175 52003 81100 333 91128=
17022 42970 01810 10064 21050 30009 40178 52010 333 91114 92428=
17024 42970 01911 10072 21052 30075 40153 52024 333 91129 92458=
17026 42970 02002 10067 21002 30116 40156 52028 333 91126 92438=
17030 41670 73401 10088 20020 30166 40171 52030 70282 84250 333 84836 87360 92428=
17034 41561 70000 10090 20005 30135 40182 52037 78082 84250 333 84830 87360 91112 92437=
17038 41665 72805 10094 20030 30128 40176 52036 72582 85250 333 85833 86360 91114 92427=
17042 41560 71101 10071 20068 30146 40186 52037 78088 84250 333 84830 87358 91109 92437=
17045 41656 83208 10041 20015 39421 40166 52030 76166 8452/ 333 84633 88458 91115=
17050 42970 31203 10111 20000 30069 40132 58002 83030 333 83360 91108=
17052 42970 01903 10091 20002 39864 40148 55000 333 91108=
17056 42970 01813 10104 20067 30156 40160 52003 333 91116 92448=
17059 42970 11608 10085 20009 30110 40157 50005 80001 333 81070 91117 92438=
17060 42960 01915 10090 20012 30131 40172 50001 333 91121=
17068 42960 30000 10064 21025 30089 40176 51003 80001 333 83072 91112=
17069 42970 02006 10083 21009 30133 40171 50003 333 91114=
17070 42965 01901 10000 21032 39304 40204 52017 333 91105=
17074 42970 01603 10001 21039 39228 40186 52025 333 91113=
17082 42670 50304 10040 20001 39536 40172 52029 83530 333 83640 85360 91110=
17084 42670 50000 10037 21006 39253 40179 52027 83550 333 83635 85360 91109=
17085 42670 72501 10053 20003 39676 40176 52027 84570 333 84640 87360 91105=
17086 42670 72502 10044 21022 39447 40178 52031 85550 333 85635 87360 91108=
17088 42670 82207 10010 21044 38758 48458 52028 8552/ 333 85640 88460 91115=
17090 42665 70000 11019 21050 38685 48456 52032 85570 333 85638 87360=
17092 41670 72912 10041 21011 38781 48418 52023 70271 85530 333 85633 87359 91117=
17096 41670 70810 10001 21013 38153 48423 52020 77173 85550 333 85635 87357 91118=
17098 41560 80312 10001 21017 38120 48433 51017 72273 8552/ 333 85625 88457 91120=
17099 41520 72701 10003 21029 38263 48407 50006 71022 84550 333 84630 87358 91113=
17100 41630 72003 10078 20006 39109 40114 52014 70422 84550 333 84635 87357 91105=
17112 42970 01910 10118 20045 30150 40152 51001 333 91117 92428=
17115 42960 01809 10074 20011 30123 40176 51003 333 91115=
17116 42970 02602 10087 21011 30053 40177 52005 333 91110=
17120 42970 01701 10051 21062 39530 40183 50006 333 91105=
17124 42960 02706 10017 21070 39263 40208 52015 333 91113=
17128 42660 22006 10007 21052 39068 40196 52023 82100 333 82840 91115=
17129 42960 02407 10028 21054 39231 40196 52022 333 91114=
17130 42965 02001 10021 21048 39138 40196 52022 333 91104=
17140 42665 72602 11002 21045 38673 48458 52025 84550 333 84635 87360 91107=
17150 42960 01606 10078 21021 30061 40189 52002 333 91110=
17160 42670 61801 10017 21039 38999 48465 52026 86500 333 86640 91106=
17170 42560 71312 10045 21039 38211 48384 53003 84520 333 84630 86457 91125=
17180 42970 01203 10120 20024 30169 40173 53003 333 91110 92418=
17184 42970 01801 10084 21029 30075 40190 51003 333 91104=
17186 42970 02101 10064 20005 30094 40183 58001 333 91103=
17193 41670 52103 11031 21061 38738 48477 52023 70172 83550 333 83640 85360=
17195 41559 62306 11010 21028 38958 48470 52030 71022 86500 333 86630 91111=
17200 41660 82817 10043 21013 39114 40110 52025 70262 8552/ 333 85635 88459 91027 91127=
17202 41460 82107 10024 20015 39047 40095 52022 72166 8552/ 333 82712 85630 88458 91112=
17203 41670 70000 10024 20013 38780 48438 52013 70262 84250 333 84840 87360 91103=
17204 41660 72002 10023 20002 38591 48408 52010 78188 85270 333 85833 87359 91105=
17210 41560 80801 10049 20026 39032 40063 53009 76066 8452/ 333 84630 88458=
17218 42960 31308 10102 21018 30176 40182 50001 80004 333 83070 91112=
17219 42965 01604 10086 21019 30040 40189 50000 333 91113=
17220 42970 01306 10102 21032 30144 40179 50001 333 91110 92428=
17234 42970 00902 10093 21024 30117 40187 53001 333 91107=
17237 42970 02402 10050 21025 39678 40197 51008 333 91105=
17240 42970 03003 10015 21065 39022 40204 52016 333 91114=
17244 42670 13407 10007 21064 38986 48474 52022 81500 333 81640 91120=
17248 42970 51201 11019 21052 38976 48474 52029 85050 333 85360 91105=
17250 42670 52301 11021 21055 38790 48476 52030 83550 333 83640 85360 91108=
17260 42660 43108 10070 21004 39267 40086 52046 82250 333 82840 84360 91126=
17270 42670 53002 10065 20045 39425 40075 52032 83250 333 83840 85360 91108=
17275 41465 80310 10014 20006 38867 48389 52017 76164 8752/ 333 82715 85633 88458 91115=
17280 41560 70204 10052 20040 39281 40070 52024 70261 85720 333 82720 83640 87460 91123=
17282 42460 81304 10054 20043 39346 40061 52016 8772/ 333 82710 85635 88459 91122=
17285 41420 80000 10000 21002 38147 48403 57006 77377 8572/ 333 82710 84630 88458 91104=
17290 42970 03205 10124 21057 30146 40178 51003 333 91114 92428=
17292 42970 02904 10051 21056 39406 40182 53007 333 91113=
17295 42960 03108 10118 21061 30154 40161 52003 333 91118=
17298 42970 02603 10099 21015 30147 40167 55000 333 91109 92418=
17300 42960 03308 10129 21067 30082 40154 52015 333 91127=
17320 42970 01106 10143 20008 30120 40125 52028 333 92448=
17330 42970 03009 10099 21047 30103 40121 52038=
17340 42670 10000 10138 20015 30109 40117 52041 81100 333 81835 92428=
17350 42960 20504 10103 20008 30033 40112 52039 82030 333 82360=
17352 42960 03309 10114 21025 30090 40115 52041=
17370 42670 23605 10132 20010 30111 40115 52044 82100 333 82835 91123 92448=
17375 42970 00101 10120 21009 30134 40136 52017 333 91110 92428=
17600 42680 13210 10117 20037 30129 40139 51028 81100 333 81835=
17601 42784 13012 10130 20019 30095 40126 53033 81500 333 55304 2//// 81650=
17609 42582 10107 10128 20009 30129 40133 53033 81800 333 81825=